CheckWX is a tool to help pilots better visualize weather data.  It is not intended as a substitute for an official pre-flight weather briefing.

01:07:52 UTC

DBBB METAR
Cadjehoun Airport
Cotonou, Benin
Current

1 hour ago

DBBB 270000Z 21008KT 9999 FEW012 29/25 Q1011 NOSIG
Observed
Mar-27 @ 00:00 UTC
Wind
  • 210° at 8 KTS
Visibility
10,000+ meters
Flight Rules
VFR
Cloud Levels
  • Few at 1,200' AGL
Temperature
29°C / 84°F
Dewpoint
25°C / 77°F
Humidity
79%
Altimeter
29.85" Hg
Pressure
1010.92 hPa
Previous

2 hours ago

DBBB 262300Z 22008KT 9999 FEW012 29/26 Q1011 NOSIG
Observed
Mar-26 @ 23:00 UTC
Wind
  • 220° at 8 KTS
Visibility
10,000+ meters
Flight Rules
VFR
Cloud Levels
  • Few at 1,200' AGL
Temperature
29°C / 84°F
Dewpoint
26°C / 79°F
Humidity
84%
Altimeter
29.85" Hg
Pressure
1010.92 hPa
Previous

3 hours ago

DBBB 262200Z 20008KT 9999 FEW012 29/25 Q1011 NOSIG
Observed
Mar-26 @ 22:00 UTC
Wind
  • 200° at 8 KTS
Visibility
10,000+ meters
Flight Rules
VFR
Cloud Levels
  • Few at 1,200' AGL
Temperature
29°C / 84°F
Dewpoint
25°C / 77°F
Humidity
79%
Altimeter
29.85" Hg
Pressure
1010.92 hPa